Constitution — C6BV8 — position and weather

sailwx.info

Track history (hours):
 
Tides and Currents Weather Stations Pressure Air Temp Water Temp Dewpoint Dewpoint Depression Visibility Wind Speed Wind Dir Waves Ship Positions

Constitution

Last reported at 2017-Dec-20 11:42 UTC. Time now 2018-Jan-19 05:49 UTC.
Position N 34°56' E 140°24'.
Warning: this ship's position is 29 days out of date.

Length 225 m; draft 7.9 m.

Type: Tanker. MMSI: 311000379.

Date/timePositionNaut miles runAvg speedWind from/ knotsBaromVisibWave heightAir tempDewpointWater temp
2017-Dec-20 11:42N 34°56' E 140°24'314.5
2017-Dec-20 11:30N 34°55' E 140°21'713.7
2017-Dec-20 10:59N 34°52' E 140°14'1014.0
2017-Dec-20 10:16N 34°47' E 140°03'514.0
2017-Dec-20 09:56N 34°46' E 139°57'614.6
2017-Dec-20 09:30N 34°48' E 139°50'915.4
2017-Dec-20 08:56N 34°55' E 139°43'614.2
2017-Dec-20 08:30N 35°01' E 139°42'713.5
2017-Dec-20 08:00N 35°07' E 139°44'612.0
2017-Dec-20 07:30N 35°13' E 139°46'611.1
2017-Dec-20 07:00N 35°18' E 139°44'510.8
2017-Dec-20 06:30N 35°23' E 139°42'3 5.3
2017-Dec-20 06:00N 35°26' E 139°44'0 0.2
2017-Dec-20 05:30N 35°26' E 139°44'0 0.2
2017-Dec-20 05:00N 35°26' E 139°44'0 0.1
2017-Dec-20 04:30N 35°26' E 139°44'0 0.1
2017-Dec-20 04:00N 35°26' E 139°44'0 0.0
2017-Dec-20 03:30N 35°26' E 139°44'0 0.1
2017-Dec-20 03:00N 35°26' E 139°44'0 0.1
2017-Dec-20 02:30N 35°26' E 139°44'0 0.2
2017-Dec-20 02:00N 35°26' E 139°44'0 0.5
2017-Dec-20 01:30N 35°26' E 139°44'3 6.0
2017-Dec-20 01:01N 35°28' E 139°47'3 6.4
2017-Dec-20 00:30N 35°31' E 139°46'1 1.5
2017-Dec-20 00:00N 35°31' E 139°46'0 0.1
2017-Dec-19 23:30N 35°31' E 139°46'0 0.0
2017-Dec-19 22:58N 35°31' E 139°46'0 0.0
2017-Dec-19 22:28N 35°31' E 139°46'0 0.0
2017-Dec-19 21:58N 35°31' E 139°46'0 0.0
2017-Dec-19 21:25N 35°31' E 139°46'0 0.0
2017-Dec-19 20:58N 35°31' E 139°46'0 0.0
2017-Dec-19 20:19N 35°31' E 139°46'0 0.0
2017-Dec-19 19:58N 35°31' E 139°46'0 0.0
2017-Dec-19 19:22N 35°31' E 139°46'0 0.0
2017-Dec-19 18:52N 35°31' E 139°46'0 0.0
2017-Dec-19 18:28N 35°31' E 139°46'0 0.0
2017-Dec-19 17:52N 35°31' E 139°46'0 0.0
2017-Dec-19 17:28N 35°31' E 139°46'0 0.0
2017-Dec-19 16:46N 35°31' E 139°46'0 0.0
2017-Dec-19 16:10N 35°31' E 139°46'0 0.0
2017-Dec-19 15:52N 35°31' E 139°46'0 0.0
2017-Dec-19 13:40N 35°31' E 139°46'0 0.0
2017-Dec-19 13:25N 35°31' E 139°46'0 0.0
2017-Dec-19 12:28N 35°31' E 139°46'0 0.0
2017-Dec-19 11:58N 35°31' E 139°46'0 0.0
2017-Dec-19 11:22N 35°31' E 139°46'0 0.0
2017-Dec-19 10:58N 35°31' E 139°46'0 0.0
2017-Dec-19 10:10N 35°31' E 139°46'0 0.0
2017-Dec-19 09:40N 35°31' E 139°46'0 0.0
2017-Dec-19 09:22N 35°31' E 139°46'0 0.0
2017-Dec-19 08:46N 35°31' E 139°46'0 0.0
2017-Dec-19 08:10N 35°31' E 139°46'0 0.0
2017-Dec-19 07:52N 35°31' E 139°46'0 0.0
2017-Dec-19 04:46N 35°31' E 139°46'0 0.0
2017-Dec-19 04:22N 35°31' E 139°46'0 0.0
2017-Dec-19 03:58N 35°31' E 139°46'0 0.0
2017-Dec-19 02:34N 35°31' E 139°46'0 0.0
2017-Dec-19 02:28N 35°31' E 139°46'0 0.0
2017-Dec-19 01:46N 35°31' E 139°46'0 0.0
2017-Dec-19 01:22N 35°31' E 139°46'0 0.0
2017-Dec-19 01:00N 35°31' E 139°46'0 0.6
2017-Dec-19 00:30N 35°31' E 139°46'1 2.6
2017-Dec-19 00:00N 35°30' E 139°45'0 0.1
2017-Dec-18 23:29N 35°30' E 139°45'0 0.0
2017-Dec-18 22:59N 35°30' E 139°45'0 0.0
2017-Dec-18 22:29N 35°30' E 139°45'0 0.0
2017-Dec-18 21:59N 35°30' E 139°45'0 0.0
2017-Dec-18 21:26N 35°30' E 139°45'0 0.0
2017-Dec-18 20:53N 35°30' E 139°45'0 0.0
2017-Dec-18 20:23N 35°30' E 139°45'0 0.0
2017-Dec-18 19:56N 35°30' E 139°45'0 0.0
2017-Dec-18 19:26N 35°30' E 139°45'0 0.0
2017-Dec-18 18:59N 35°30' E 139°45'0 0.0
2017-Dec-18 18:26N 35°30' E 139°45'0 0.0
2017-Dec-18 17:59N 35°30' E 139°45'0 0.0
2017-Dec-18 17:26N 35°30' E 139°45'0 0.0
2017-Dec-18 16:59N 35°30' E 139°45'0 0.0
2017-Dec-18 16:26N 35°30' E 139°45'0 0.0
2017-Dec-18 15:59N 35°30' E 139°45'0 0.0
2017-Dec-18 15:26N 35°30' E 139°45'0 0.0
2017-Dec-18 14:59N 35°30' E 139°45'0 0.0
2017-Dec-18 14:29N 35°30' E 139°45'0 0.0
2017-Dec-18 13:53N 35°30' E 139°45'0 0.0
2017-Dec-18 13:29N 35°30' E 139°45'0 0.0
2017-Dec-18 12:50N 35°30' E 139°45'0 0.0
2017-Dec-18 12:26N 35°30' E 139°45'0 0.0
2017-Dec-18 11:56N 35°30' E 139°45'0 0.0
2017-Dec-18 11:26N 35°30' E 139°45'0 0.0
2017-Dec-18 10:56N 35°30' E 139°45'0 0.0
2017-Dec-18 10:26N 35°30' E 139°45'0 0.0
2017-Dec-18 09:56N 35°30' E 139°45'0 0.0
2017-Dec-18 09:29N 35°30' E 139°45'0 0.0
2017-Dec-18 08:59N 35°30' E 139°45'0 0.0
2017-Dec-18 08:23N 35°30' E 139°45'0 0.0
2017-Dec-18 07:59N 35°30' E 139°45'0 0.0
2017-Dec-18 07:26N 35°30' E 139°45'0 0.0
2017-Dec-18 06:59N 35°30' E 139°45'0 0.0
2017-Dec-18 06:29N 35°30' E 139°45'0 0.0
2017-Dec-18 05:59N 35°30' E 139°45'0 0.0
2017-Dec-18 05:17N 35°30' E 139°45'0 0.0
2017-Dec-18 04:59N 35°30' E 139°45'0 0.0
2017-Dec-18 04:29N 35°30' E 139°45'0 0.0
2017-Dec-18 03:53N 35°30' E 139°45'0 0.0
2017-Dec-18 03:29N 35°30' E 139°45'0 0.0
2017-Dec-18 02:59N 35°30' E 139°45'0 0.0
2017-Dec-18 02:29N 35°30' E 139°45'0 0.0
2017-Dec-18 01:48N 35°30' E 139°45'0 0.3
2017-Dec-18 01:31N 35°30' E 139°45'3 6.0
2017-Dec-18 01:00N 35°28' E 139°42'4 7.8
2017-Dec-18 00:31N 35°25' E 139°46'611.0
2017-Dec-18 00:00N 35°20' E 139°44'611.8
2017-Dec-17 23:30N 35°15' E 139°47'510.6
2017-Dec-17 23:00N 35°09' E 139°46'5 9.9
2017-Dec-17 22:30N 35°04' E 139°45'4 8.0
2017-Dec-17 22:00N 35°02' E 139°41'611.3
2017-Dec-17 21:30N 34°59' E 139°35'714.6
2017-Dec-17 21:00N 34°55' E 139°28'713.5
2017-Dec-17 20:30N 34°51' E 139°21'714.3
2017-Dec-17 20:00N 34°46' E 139°15'714.2
2017-Dec-17 19:30N 34°40' E 139°10'713.9
2017-Dec-17 19:00N 34°33' E 139°08'4 8.8
2017-Dec-17 18:30N 34°29' E 139°09'1 1.7
2017-Dec-17 17:57N 34°28' E 139°08'1 1.7
2017-Dec-17 17:30N 34°28' E 139°07'1 1.5
2017-Dec-17 17:00N 34°27' E 139°06'1 1.3
2017-Dec-17 16:30N 34°27' E 139°06'1 1.6
2017-Dec-17 16:00N 34°27' E 139°05'1 2.6
2017-Dec-17 15:30N 34°27' E 139°03'2 3.1
2017-Dec-17 15:00N 34°27' E 139°02'2 3.4
2017-Dec-17 14:30N 34°26' E 138°60'2 3.9
2017-Dec-17 13:59N 34°26' E 138°57'2 4.6
2017-Dec-17 13:29N 34°26' E 138°54'4 7.6
2017-Dec-17 13:00N 34°26' E 138°50'917.7
2017-Dec-17 12:30N 34°25' E 138°39'917.2
2017-Dec-17 11:58N 34°23' E 138°28'917.1
2017-Dec-17 11:28N 34°22' E 138°18'916.4
2017-Dec-17 10:56N 34°23' E 138°07'716.3
2017-Dec-17 10:29N 34°24' E 137°58'916.7
2017-Dec-17 09:57N 34°24' E 137°48'1516.2
2017-Dec-17 09:03N 34°26' E 137°30'2215.2
2017-Dec-17 07:38N 34°30' E 137°04'213.3
2017-Dec-17 07:30N 34°31' E 137°03'611.5
2017-Dec-17 06:59N 34°35' E 136°58'612.0
2017-Dec-17 06:30N 34°39' E 136°52'713.5
2017-Dec-17 06:00N 34°44' E 136°48'713.6
2017-Dec-17 05:30N 34°51' E 136°45'713.3
2017-Dec-17 05:01N 34°57' E 136°43'3 5.6
2017-Dec-17 04:31N 34°58' E 136°40'0 0.0
2017-Dec-16 23:13N 34°58' E 136°40'0 0.0
2017-Dec-16 22:49N 34°58' E 136°40'0 0.0
2017-Dec-16 21:07N 34°58' E 136°40'0 0.0
2017-Dec-16 20:55N 34°58' E 136°40'0 0.0
2017-Dec-16 20:25N 34°58' E 136°40'0 0.0
2017-Dec-16 19:55N 34°58' E 136°40'0 0.0
2017-Dec-16 19:19N 34°58' E 136°40'0 0.0
2017-Dec-16 18:19N 34°58' E 136°40'0 0.0
2017-Dec-16 17:49N 34°58' E 136°40'0 0.0
2017-Dec-16 16:13N 34°58' E 136°40'0 0.0
2017-Dec-16 14:55N 34°58' E 136°40'0 0.0
2017-Dec-16 14:25N 34°58' E 136°40'0 0.0
2017-Dec-16 13:55N 34°58' E 136°40'0 0.0
2017-Dec-16 12:49N 34°58' E 136°40'0 0.0
2017-Dec-16 12:19N 34°58' E 136°40'0 0.0
2017-Dec-16 11:55N 34°58' E 136°40'0 0.0
2017-Dec-16 10:55N 34°58' E 136°40'0 0.0
2017-Dec-16 10:19N 34°58' E 136°40'0 0.0
2017-Dec-16 09:55N 34°58' E 136°40'0 0.0
2017-Dec-16 09:25N 34°58' E 136°40'0 0.0
2017-Dec-16 08:43N 34°58' E 136°40'0 0.0
2017-Dec-16 08:19N 34°58' E 136°40'0 0.0
2017-Dec-16 07:49N 34°58' E 136°40'0 0.0
2017-Dec-16 03:37N 34°58' E 136°40'0 0.0
2017-Dec-16 03:13N 34°58' E 136°40'0 0.0
2017-Dec-16 02:59N 34°58' E 136°40'0 1.0
2017-Dec-16 02:30N 34°58' E 136°40'2 4.5
2017-Dec-16 02:00N 34°57' E 136°43'5 9.3
2017-Dec-16 01:30N 34°53' E 136°43'613.0
2017-Dec-16 01:00N 34°46' E 136°44'714.4
2017-Dec-16 00:31N 34°41' E 136°50'714.3
2017-Dec-16 00:00N 34°36' E 136°57'612.8
2017-Dec-15 23:30N 34°32' E 137°03'812.0
2017-Dec-15 22:49N 34°28' E 137°12'3215.1
2017-Dec-15 20:42N 34°16' E 137°47'2 8.6
2017-Dec-15 20:29N 34°15' E 137°49'1 1.1
2017-Dec-15 19:53N 34°15' E 137°49'1 1.2
2017-Dec-15 19:20N 34°16' E 137°48'1 1.1
2017-Dec-15 18:42N 34°16' E 137°47'0 1.0
2017-Dec-15 18:24N 34°16' E 137°47'0 0.8
2017-Dec-15 17:54N 34°17' E 137°47'0 0.8
2017-Dec-15 17:16N 34°17' E 137°46'0 0.7
2017-Dec-15 16:47N 34°17' E 137°46'1 0.5
2017-Dec-15 14:05N 34°17' E 137°44'0 0.4
2017-Dec-15 13:38N 34°17' E 137°44'0 0.4
2017-Dec-15 13:30N 34°17' E 137°44'0 0.3
2017-Dec-15 13:00N 34°17' E 137°44'0 0.3
2017-Dec-15 12:26N 34°17' E 137°44'0 0.5
2017-Dec-15 12:00N 34°17' E 137°43'0 0.6
2017-Dec-15 11:22N 34°17' E 137°43'0 0.8
2017-Dec-15 11:00N 34°17' E 137°43'1 0.8
2017-Dec-15 10:13N 34°18' E 137°42'1 0.7
2017-Dec-15 09:13N 34°18' E 137°41'  
Track history (hours):
 
Tides and Currents Weather Stations Pressure Air Temp Water Temp Dewpoint Dewpoint Depression Visibility Wind Speed Wind Dir Waves Ship Positions

Constitution

Last reported at 2017-Dec-20 11:42 UTC. Time now 2018-Jan-19 05:49 UTC.
Position N 34°56' E 140°24'.
Warning: this ship's position is 29 days out of date.

Length 225 m; draft 7.9 m.

Type: Tanker. MMSI: 311000379.

Date/timePositionNaut miles runAvg speedWind from/ knotsBaromVisibWave heightAir tempDewpointWater temp
2017-Dec-20 11:42N 34°56' E 140°24'314.5
2017-Dec-20 11:30N 34°55' E 140°21'713.7
2017-Dec-20 10:59N 34°52' E 140°14'1014.0
2017-Dec-20 10:16N 34°47' E 140°03'514.0
2017-Dec-20 09:56N 34°46' E 139°57'614.6
2017-Dec-20 09:30N 34°48' E 139°50'915.4
2017-Dec-20 08:56N 34°55' E 139°43'614.2
2017-Dec-20 08:30N 35°01' E 139°42'713.5
2017-Dec-20 08:00N 35°07' E 139°44'612.0
2017-Dec-20 07:30N 35°13' E 139°46'611.1
2017-Dec-20 07:00N 35°18' E 139°44'510.8
2017-Dec-20 06:30N 35°23' E 139°42'3 5.3
2017-Dec-20 06:00N 35°26' E 139°44'0 0.2
2017-Dec-20 05:30N 35°26' E 139°44'0 0.2
2017-Dec-20 05:00N 35°26' E 139°44'0 0.1
2017-Dec-20 04:30N 35°26' E 139°44'0 0.1
2017-Dec-20 04:00N 35°26' E 139°44'0 0.0
2017-Dec-20 03:30N 35°26' E 139°44'0 0.1
2017-Dec-20 03:00N 35°26' E 139°44'0 0.1
2017-Dec-20 02:30N 35°26' E 139°44'0 0.2
2017-Dec-20 02:00N 35°26' E 139°44'0 0.5
2017-Dec-20 01:30N 35°26' E 139°44'3 6.0
2017-Dec-20 01:01N 35°28' E 139°47'3 6.4
2017-Dec-20 00:30N 35°31' E 139°46'1 1.5
2017-Dec-20 00:00N 35°31' E 139°46'0 0.1
2017-Dec-19 23:30N 35°31' E 139°46'0 0.0
2017-Dec-19 22:58N 35°31' E 139°46'0 0.0
2017-Dec-19 22:28N 35°31' E 139°46'0 0.0
2017-Dec-19 21:58N 35°31' E 139°46'0 0.0
2017-Dec-19 21:25N 35°31' E 139°46'0 0.0
2017-Dec-19 20:58N 35°31' E 139°46'0 0.0
2017-Dec-19 20:19N 35°31' E 139°46'0 0.0
2017-Dec-19 19:58N 35°31' E 139°46'0 0.0
2017-Dec-19 19:22N 35°31' E 139°46'0 0.0
2017-Dec-19 18:52N 35°31' E 139°46'0 0.0
2017-Dec-19 18:28N 35°31' E 139°46'0 0.0
2017-Dec-19 17:52N 35°31' E 139°46'0 0.0
2017-Dec-19 17:28N 35°31' E 139°46'0 0.0
2017-Dec-19 16:46N 35°31' E 139°46'0 0.0
2017-Dec-19 16:10N 35°31' E 139°46'0 0.0
2017-Dec-19 15:52N 35°31' E 139°46'0 0.0
2017-Dec-19 13:40N 35°31' E 139°46'0 0.0
2017-Dec-19 13:25N 35°31' E 139°46'0 0.0
2017-Dec-19 12:28N 35°31' E 139°46'0 0.0
2017-Dec-19 11:58N 35°31' E 139°46'0 0.0
2017-Dec-19 11:22N 35°31' E 139°46'0 0.0
2017-Dec-19 10:58N 35°31' E 139°46'0 0.0
2017-Dec-19 10:10N 35°31' E 139°46'0 0.0
2017-Dec-19 09:40N 35°31' E 139°46'0 0.0
2017-Dec-19 09:22N 35°31' E 139°46'0 0.0
2017-Dec-19 08:46N 35°31' E 139°46'0 0.0
2017-Dec-19 08:10N 35°31' E 139°46'0 0.0
2017-Dec-19 07:52N 35°31' E 139°46'0 0.0
2017-Dec-19 04:46N 35°31' E 139°46'0 0.0
2017-Dec-19 04:22N 35°31' E 139°46'0 0.0
2017-Dec-19 03:58N 35°31' E 139°46'0 0.0
2017-Dec-19 02:34N 35°31' E 139°46'0 0.0
2017-Dec-19 02:28N 35°31' E 139°46'0 0.0
2017-Dec-19 01:46N 35°31' E 139°46'0 0.0
2017-Dec-19 01:22N 35°31' E 139°46'0 0.0
2017-Dec-19 01:00N 35°31' E 139°46'0 0.6
2017-Dec-19 00:30N 35°31' E 139°46'1 2.6
2017-Dec-19 00:00N 35°30' E 139°45'0 0.1
2017-Dec-18 23:29N 35°30' E 139°45'0 0.0
2017-Dec-18 22:59N 35°30' E 139°45'0 0.0
2017-Dec-18 22:29N 35°30' E 139°45'0 0.0
2017-Dec-18 21:59N 35°30' E 139°45'0 0.0
2017-Dec-18 21:26N 35°30' E 139°45'0 0.0
2017-Dec-18 20:53N 35°30' E 139°45'0 0.0
2017-Dec-18 20:23N 35°30' E 139°45'0 0.0
2017-Dec-18 19:56N 35°30' E 139°45'0 0.0
2017-Dec-18 19:26N 35°30' E 139°45'0 0.0
2017-Dec-18 18:59N 35°30' E 139°45'0 0.0
2017-Dec-18 18:26N 35°30' E 139°45'0 0.0
2017-Dec-18 17:59N 35°30' E 139°45'0 0.0
2017-Dec-18 17:26N 35°30' E 139°45'0 0.0
2017-Dec-18 16:59N 35°30' E 139°45'0 0.0
2017-Dec-18 16:26N 35°30' E 139°45'0 0.0
2017-Dec-18 15:59N 35°30' E 139°45'0 0.0
2017-Dec-18 15:26N 35°30' E 139°45'0 0.0
2017-Dec-18 14:59N 35°30' E 139°45'0 0.0
2017-Dec-18 14:29N 35°30' E 139°45'0 0.0
2017-Dec-18 13:53N 35°30' E 139°45'0 0.0
2017-Dec-18 13:29N 35°30' E 139°45'0 0.0
2017-Dec-18 12:50N 35°30' E 139°45'0 0.0
2017-Dec-18 12:26N 35°30' E 139°45'0 0.0
2017-Dec-18 11:56N 35°30' E 139°45'0 0.0
2017-Dec-18 11:26N 35°30' E 139°45'0 0.0
2017-Dec-18 10:56N 35°30' E 139°45'0 0.0
2017-Dec-18 10:26N 35°30' E 139°45'0 0.0
2017-Dec-18 09:56N 35°30' E 139°45'0 0.0
2017-Dec-18 09:29N 35°30' E 139°45'0 0.0
2017-Dec-18 08:59N 35°30' E 139°45'0 0.0
2017-Dec-18 08:23N 35°30' E 139°45'0 0.0
2017-Dec-18 07:59N 35°30' E 139°45'0 0.0
2017-Dec-18 07:26N 35°30' E 139°45'0 0.0
2017-Dec-18 06:59N 35°30' E 139°45'0 0.0
2017-Dec-18 06:29N 35°30' E 139°45'0 0.0
2017-Dec-18 05:59N 35°30' E 139°45'0 0.0
2017-Dec-18 05:17N 35°30' E 139°45'0 0.0
2017-Dec-18 04:59N 35°30' E 139°45'0 0.0
2017-Dec-18 04:29N 35°30' E 139°45'0 0.0
2017-Dec-18 03:53N 35°30' E 139°45'0 0.0
2017-Dec-18 03:29N 35°30' E 139°45'0 0.0
2017-Dec-18 02:59N 35°30' E 139°45'0 0.0
2017-Dec-18 02:29N 35°30' E 139°45'0 0.0
2017-Dec-18 01:48N 35°30' E 139°45'0 0.3
2017-Dec-18 01:31N 35°30' E 139°45'3 6.0
2017-Dec-18 01:00N 35°28' E 139°42'4 7.8
2017-Dec-18 00:31N 35°25' E 139°46'611.0
2017-Dec-18 00:00N 35°20' E 139°44'611.8
2017-Dec-17 23:30N 35°15' E 139°47'510.6
2017-Dec-17 23:00N 35°09' E 139°46'5 9.9
2017-Dec-17 22:30N 35°04' E 139°45'4 8.0
2017-Dec-17 22:00N 35°02' E 139°41'611.3
2017-Dec-17 21:30N 34°59' E 139°35'714.6
2017-Dec-17 21:00N 34°55' E 139°28'713.5
2017-Dec-17 20:30N 34°51' E 139°21'714.3
2017-Dec-17 20:00N 34°46' E 139°15'714.2
2017-Dec-17 19:30N 34°40' E 139°10'713.9
2017-Dec-17 19:00N 34°33' E 139°08'4 8.8
2017-Dec-17 18:30N 34°29' E 139°09'1 1.7
2017-Dec-17 17:57N 34°28' E 139°08'1 1.7
2017-Dec-17 17:30N 34°28' E 139°07'1 1.5
2017-Dec-17 17:00N 34°27' E 139°06'1 1.3
2017-Dec-17 16:30N 34°27' E 139°06'1 1.6
2017-Dec-17 16:00N 34°27' E 139°05'1 2.6
2017-Dec-17 15:30N 34°27' E 139°03'2 3.1
2017-Dec-17 15:00N 34°27' E 139°02'2 3.4
2017-Dec-17 14:30N 34°26' E 138°60'2 3.9
2017-Dec-17 13:59N 34°26' E 138°57'2 4.6
2017-Dec-17 13:29N 34°26' E 138°54'4 7.6
2017-Dec-17 13:00N 34°26' E 138°50'917.7
2017-Dec-17 12:30N 34°25' E 138°39'917.2
2017-Dec-17 11:58N 34°23' E 138°28'917.1
2017-Dec-17 11:28N 34°22' E 138°18'916.4
2017-Dec-17 10:56N 34°23' E 138°07'716.3
2017-Dec-17 10:29N 34°24' E 137°58'916.7
2017-Dec-17 09:57N 34°24' E 137°48'1516.2
2017-Dec-17 09:03N 34°26' E 137°30'2215.2
2017-Dec-17 07:38N 34°30' E 137°04'213.3
2017-Dec-17 07:30N 34°31' E 137°03'611.5
2017-Dec-17 06:59N 34°35' E 136°58'612.0
2017-Dec-17 06:30N 34°39' E 136°52'713.5
2017-Dec-17 06:00N 34°44' E 136°48'713.6
2017-Dec-17 05:30N 34°51' E 136°45'713.3
2017-Dec-17 05:01N 34°57' E 136°43'3 5.6
2017-Dec-17 04:31N 34°58' E 136°40'0 0.0
2017-Dec-16 23:13N 34°58' E 136°40'0 0.0
2017-Dec-16 22:49N 34°58' E 136°40'0 0.0
2017-Dec-16 21:07N 34°58' E 136°40'0 0.0
2017-Dec-16 20:55N 34°58' E 136°40'0 0.0
2017-Dec-16 20:25N 34°58' E 136°40'0 0.0
2017-Dec-16 19:55N 34°58' E 136°40'0 0.0
2017-Dec-16 19:19N 34°58' E 136°40'0 0.0
2017-Dec-16 18:19N 34°58' E 136°40'0 0.0
2017-Dec-16 17:49N 34°58' E 136°40'0 0.0
2017-Dec-16 16:13N 34°58' E 136°40'0 0.0
2017-Dec-16 14:55N 34°58' E 136°40'0 0.0
2017-Dec-16 14:25N 34°58' E 136°40'0 0.0
2017-Dec-16 13:55N 34°58' E 136°40'0 0.0
2017-Dec-16 12:49N 34°58' E 136°40'0 0.0
2017-Dec-16 12:19N 34°58' E 136°40'0 0.0
2017-Dec-16 11:55N 34°58' E 136°40'0 0.0
2017-Dec-16 10:55N 34°58' E 136°40'0 0.0
2017-Dec-16 10:19N 34°58' E 136°40'0 0.0
2017-Dec-16 09:55N 34°58' E 136°40'0 0.0
2017-Dec-16 09:25N 34°58' E 136°40'0 0.0
2017-Dec-16 08:43N 34°58' E 136°40'0 0.0
2017-Dec-16 08:19N 34°58' E 136°40'0 0.0
2017-Dec-16 07:49N 34°58' E 136°40'0 0.0
2017-Dec-16 03:37N 34°58' E 136°40'0 0.0
2017-Dec-16 03:13N 34°58' E 136°40'0 0.0
2017-Dec-16 02:59N 34°58' E 136°40'0 1.0
2017-Dec-16 02:30N 34°58' E 136°40'2 4.5
2017-Dec-16 02:00N 34°57' E 136°43'5 9.3
2017-Dec-16 01:30N 34°53' E 136°43'613.0
2017-Dec-16 01:00N 34°46' E 136°44'714.4
2017-Dec-16 00:31N 34°41' E 136°50'714.3
2017-Dec-16 00:00N 34°36' E 136°57'612.8
2017-Dec-15 23:30N 34°32' E 137°03'812.0
2017-Dec-15 22:49N 34°28' E 137°12'3215.1
2017-Dec-15 20:42N 34°16' E 137°47'2 8.6
2017-Dec-15 20:29N 34°15' E 137°49'1 1.1
2017-Dec-15 19:53N 34°15' E 137°49'1 1.2
2017-Dec-15 19:20N 34°16' E 137°48'1 1.1
2017-Dec-15 18:42N 34°16' E 137°47'0 1.0
2017-Dec-15 18:24N 34°16' E 137°47'0 0.8
2017-Dec-15 17:54N 34°17' E 137°47'0 0.8
2017-Dec-15 17:16N 34°17' E 137°46'0 0.7
2017-Dec-15 16:47N 34°17' E 137°46'1 0.5
2017-Dec-15 14:05N 34°17' E 137°44'0 0.4
2017-Dec-15 13:38N 34°17' E 137°44'0 0.4
2017-Dec-15 13:30N 34°17' E 137°44'0 0.3
2017-Dec-15 13:00N 34°17' E 137°44'0 0.3
2017-Dec-15 12:26N 34°17' E 137°44'0 0.5
2017-Dec-15 12:00N 34°17' E 137°43'0 0.6
2017-Dec-15 11:22N 34°17' E 137°43'0 0.8
2017-Dec-15 11:00N 34°17' E 137°43'1 0.8
2017-Dec-15 10:13N 34°18' E 137°42'1 0.7
2017-Dec-15 09:13N 34°18' E 137°41'  

Dump ship's entire track history